Time;durP1;ratioP1;P1;durP2;ratioP2;P2;SDS_P1;SDS_P2;PMS_P1;PMS_P2;Temp;Humidity;BMP_temperature;BMP_pressure;BME280_temperature;BME280_humidity;BME280_pressure;Samples;Min_cycle;Max_cycle;Signal;HPM_P1;HPM_P2
2021/11/02 00:02:12;;;;;;;31.23;19.60;;;;;;;4.29;84.32;101540.09;5032538;28;20283;-60
2021/11/02 00:04:39;;;;;;;30.87;20.00;;;;;;;4.14;84.15;101526.16;5030602;28;20272;-60
2021/11/02 00:07:05;;;;;;;34.53;21.03;;;;;;;4.28;84.29;101559.50;5031597;28;20033;-61
2021/11/02 00:09:32;;;;;;;30.70;21.07;;;;;;;4.23;83.75;101546.63;5014174;28;20272;-59
2021/11/02 00:12:00;;;;;;;36.63;21.92;;;;;;;4.11;83.79;101530.78;5030252;28;20302;-62
2021/11/02 00:14:27;;;;;;;30.30;21.13;;;;;;;4.19;84.23;101554.84;5032012;28;20037;-59
2021/11/02 00:16:59;;;;;;;27.07;20.30;;;;;;;4.16;84.36;101550.63;5032185;28;20353;-60
2021/11/02 00:19:27;;;;;;;32.40;20.30;;;;;;;4.18;84.40;101551.38;5031881;28;20268;-60
2021/11/02 00:21:56;;;;;;;35.97;22.17;;;;;;;4.17;84.73;101552.31;5031536;28;20315;-57
2021/11/02 00:26:57;;;;;;;29.63;20.97;;;;;;;4.05;84.26;101534.69;5032727;28;20326;-61
2021/11/02 00:29:22;;;;;;;30.50;19.83;;;;;;;4.15;84.20;101542.81;5035392;28;20671;-60
2021/11/02 00:31:48;;;;;;;32.77;22.27;;;;;;;3.86;84.14;101500.78;5018473;28;20037;-60
2021/11/02 00:34:13;;;;;;;34.97;23.67;;;;;;;4.11;84.13;101551.88;5035225;28;20037;-59
2021/11/02 00:36:39;;;;;;;34.23;21.60;;;;;;;4.00;84.36;101534.97;5035141;28;20163;-61
2021/11/02 00:39:06;;;;;;;34.07;21.53;;;;;;;4.01;84.27;101541.94;5017741;28;20053;-59
2021/11/02 00:41:33;;;;;;;37.00;22.25;;;;;;;4.08;84.31;101552.94;5035159;28;20049;-56
2021/11/02 00:43:59;;;;;;;36.43;22.43;;;;;;;4.06;83.75;101560.09;5017734;28;20173;-59
2021/11/02 00:46:31;;;;;;;34.60;23.17;;;;;;;3.84;84.31;101531.66;5035990;28;20260;-59
2021/11/02 00:48:58;;;;;;;32.37;20.60;;;;;;;3.91;84.65;101540.84;5035262;28;20037;-61
2021/11/02 00:51:24;;;;;;;35.27;21.80;;;;;;;3.92;84.43;101552.25;5017393;28;20267;-61
2021/11/02 00:53:49;;;;;;;33.77;22.07;;;;;;;3.99;84.44;101558.78;5035202;28;20767;-59
2021/11/02 00:56:15;;;;;;;31.63;21.43;;;;;;;3.98;84.06;101557.09;5034897;28;20045;-59
2021/11/02 00:58:40;;;;;;;30.90;20.47;;;;;;;3.88;83.91;101541.06;5035264;28;20037;-60
2021/11/02 01:01:06;;;;;;;32.23;21.30;;;;;;;3.96;83.84;101548.44;5036066;28;20037;-58
2021/11/02 01:03:33;;;;;;;36.37;23.07;;;;;;;3.85;83.86;101520.19;5034888;28;20034;-58
2021/11/02 01:05:59;;;;;;;31.37;20.20;;;;;;;3.92;84.26;101537.28;5035044;28;20076;-60
2021/11/02 01:08:24;;;;;;;32.13;22.90;;;;;;;3.86;84.34;101537.69;5034776;28;20365;-60
2021/11/02 01:10:50;;;;;;;34.80;21.47;;;;;;;3.84;84.00;101529.03;5034748;28;20484;-59
2021/11/02 01:13:16;;;;;;;30.63;21.73;;;;;;;3.82;84.36;101532.72;5034801;28;20060;-58
2021/11/02 01:15:42;;;;;;;33.43;22.23;;;;;;;3.81;84.48;101533.66;5035415;28;20511;-60
2021/11/02 01:18:08;;;;;;;31.70;20.70;;;;;;;3.82;83.60;101544.09;5034532;28;20624;-60
2021/11/02 01:20:34;;;;;;;39.03;23.87;;;;;;;3.79;84.36;101539.03;5017151;28;20349;-60
2021/11/02 01:23:00;;;;;;;35.37;21.13;;;;;;;3.83;84.11;101551.06;5034662;28;20187;-59
2021/11/02 01:25:25;;;;;;;27.77;21.30;;;;;;;3.79;83.94;101552.22;5016841;28;20507;-58
2021/11/02 01:27:51;;;;;;;36.10;22.23;;;;;;;3.79;84.04;101546.09;5034608;28;20048;-59
2021/11/02 01:30:18;;;;;;;30.83;22.20;;;;;;;3.71;84.24;101530.75;5035107;28;20393;-59
2021/11/02 01:32:44;;;;;;;34.77;23.03;;;;;;;3.78;84.17;101539.97;5034708;28;20112;-60
2021/11/02 01:35:10;;;;;;;37.37;24.67;;;;;;;3.68;84.14;101538.88;5034234;28;20292;-59
2021/11/02 01:37:39;;;;;;;32.37;21.37;;;;;;;3.71;84.06;101533.41;5033979;28;20280;-59
2021/11/02 01:40:08;;;;;;;32.93;22.03;;;;;;;3.70;84.35;101535.19;5016247;28;20053;-59
2021/11/02 01:42:34;;;;;;;28.97;20.33;;;;;;;3.60;84.18;101522.72;5033013;28;20375;-59
2021/11/02 01:45:02;;;;;;;31.97;20.70;;;;;;;3.63;84.29;101520.72;5034278;28;20294;-60
2021/11/02 01:47:29;;;;;;;32.72;20.02;;;;;;;3.70;83.71;101539.59;5034746;28;20818;-58
2021/11/02 01:49:55;;;;;;;31.83;20.43;;;;;;;3.59;84.38;101524.50;5034128;28;20033;-61
2021/11/02 01:52:20;;;;;;;29.73;20.47;;;;;;;3.61;83.98;101519.13;5034045;28;20283;-60
2021/11/02 01:54:46;;;;;;;34.73;21.90;;;;;;;3.62;83.85;101529.56;5033798;28;20069;-58
2021/11/02 01:57:12;;;;;;;28.93;19.87;;;;;;;3.58;84.33;101528.09;5034463;28;20298;-61
2021/11/02 01:59:39;;;;;;;29.30;20.40;;;;;;;3.49;84.68;101518.16;5033866;28;20377;-58
2021/11/02 02:02:08;;;;;;;27.90;20.10;;;;;;;3.48;84.79;101523.53;5016803;28;20514;-59
2021/11/02 02:04:46;;;;;;;;;;;;;;;3.48;84.80;101521.72;5034203;28;20763;-58
2021/11/02 02:07:30;;;;;;;26.98;19.67;;;;;;;3.46;85.12;101533.28;5033798;28;19916;-61
2021/11/02 02:10:25;;;;;;;30.70;20.60;;;;;;;3.43;85.01;101529.91;5033734;28;20042;-59
2021/11/02 02:13:07;;;;;;;33.03;20.70;;;;;;;3.42;85.43;101528.22;5033786;28;20342;-61
2021/11/02 02:16:01;;;;;;;30.87;21.50;;;;;;;3.43;85.16;101529.06;5016166;28;20454;-60
2021/11/02 02:18:45;;;;;;;39.20;21.80;;;;;;;3.41;84.74;101534.41;5033514;28;20276;-59
2021/11/02 02:21:25;;;;;;;28.37;20.27;;;;;;;3.29;85.30;101516.78;5035902;28;20271;-59
2021/11/02 02:24:13;;;;;;;29.63;21.10;;;;;;;3.35;84.72;101531.34;5035126;28;20831;-59
2021/11/02 02:26:49;;;;;;;27.25;20.25;;;;;;;3.38;84.95;101531.16;5016983;28;20755;-58
2021/11/02 02:29:15;;;;;;;29.80;18.97;;;;;;;3.35;84.56;101529.56;5033295;28;20037;-56
2021/11/02 02:31:44;;;;;;;28.57;21.47;;;;;;;3.25;84.81;101512.66;5034160;28;20368;-61
2021/11/02 02:34:12;;;;;;;32.55;22.17;;;;;;;3.27;85.24;101518.66;5033326;28;20272;-60
2021/11/02 02:36:40;;;;;;;32.20;22.67;;;;;;;3.32;84.97;101531.53;5032988;28;20415;-61
2021/11/02 02:39:10;;;;;;;35.47;22.27;;;;;;;3.25;85.18;101536.34;5015416;28;20390;-59
2021/11/02 02:41:38;;;;;;;31.63;21.17;;;;;;;3.22;85.45;101530.44;5017937;28;20295;-58
2021/11/02 02:44:07;;;;;;;;;;;;;;;3.23;85.03;101532.97;5034855;28;20276;-64
2021/11/02 02:46:33;;;;;;;28.20;19.23;;;;;;;3.09;84.77;101509.28;5033616;28;20011;-59
2021/11/02 02:48:59;;;;;;;24.63;18.70;;;;;;;3.14;85.20;101522.16;5033408;28;20256;-59
2021/11/02 02:51:25;;;;;;;30.10;19.57;;;;;;;3.07;85.01;101501.50;5033230;28;20341;-58
2021/11/02 02:53:52;;;;;;;28.60;20.40;;;;;;;3.15;84.93;101513.31;5033269;28;20790;-61
2021/11/02 02:56:18;;;;;;;34.10;21.23;;;;;;;3.10;84.72;101510.97;5032811;28;20094;-60
2021/11/02 02:58:50;;;;;;;37.57;22.03;;;;;;;3.14;85.41;101523.00;5032628;28;20350;-59
2021/11/02 03:01:18;;;;;;;32.27;23.10;;;;;;;3.10;85.36;101521.50;5032964;28;20296;-61
2021/11/02 03:03:56;;;;;;;32.10;23.30;;;;;;;3.06;84.74;101522.66;5032940;28;20272;-59
2021/11/02 03:06:24;;;;;;;31.90;23.47;;;;;;;2.99;85.34;101509.03;5032657;28;20387;-59
2021/11/02 03:08:52;;;;;;;30.98;21.33;;;;;;;3.10;85.17;101537.31;5032418;28;20279;-60
2021/11/02 03:11:18;;;;;;;32.20;21.33;;;;;;;3.08;85.98;101537.41;5033004;28;20034;-60
2021/11/02 03:13:48;;;;;;;32.30;21.13;;;;;;;3.02;85.28;101521.16;5014958;28;20271;-59
2021/11/02 03:16:22;;;;;;;33.67;21.40;;;;;;;3.08;85.12;101534.75;5033507;28;20318;-58
2021/11/02 03:44:37;;;;;;;37.83;23.53;;;;;;;2.79;86.09;101533.94;5031964;28;20328;-61
2021/11/02 03:50:02;;;;;;;36.80;23.93;;;;;;;2.67;86.60;101523.31;5014252;28;20272;-60
2021/11/02 03:54:59;;;;;;;30.85;22.52;;;;;;;2.70;86.44;101531.03;5032050;28;20275;-58
2021/11/02 04:23:29;;;;;;;39.70;24.85;;;;;;;2.66;85.96;101569.81;5031695;28;20268;-58
2021/11/02 04:46:52;;;;;;;37.53;27.97;;;;;;;2.53;87.13;101558.31;5032466;28;20643;-58
2021/11/02 05:13:47;;;;;;;33.33;25.27;;;;;;;2.88;85.56;101579.03;5032465;28;20481;-59
2021/11/02 06:00:50;;;;;;;55.23;30.53;;;;;;;3.52;83.60;101630.34;4951326;28;20505;-59
2021/11/02 06:03:27;;;;;;;48.47;30.57;;;;;;;3.60;84.45;101634.19;5001123;28;20327;-59
2021/11/02 06:06:02;;;;;;;49.10;29.23;;;;;;;3.63;83.79;101636.63;5034758;28;20300;-59
2021/11/02 06:30:26;;;;;;;48.53;28.97;;;;;;;3.68;84.15;101655.63;5034345;28;20640;-60
2021/11/02 06:49:34;;;;;;;46.50;30.73;;;;;;;3.91;83.05;101672.63;5019927;28;20767;-59
2021/11/02 07:19:41;;;;;;;46.97;29.50;;;;;;;4.05;82.33;101655.94;5041175;28;20256;-58
2021/11/02 07:22:40;;;;;;;52.17;32.03;;;;;;;4.07;81.70;101650.56;5041304;28;20294;-57
2021/11/02 08:46:57;;;;;;;49.87;32.07;;;;;;;5.17;79.25;101692.38;5053554;28;20837;-64
2021/11/02 08:49:23;;;;;;;45.70;30.07;;;;;;;5.05;79.43;101695.88;5011918;28;20352;-62
2021/11/02 08:51:49;;;;;;;52.70;32.67;;;;;;;5.05;79.55;101690.59;5045123;28;20119;-66
2021/11/02 08:54:16;;;;;;;49.90;32.07;;;;;;;5.16;79.24;101685.41;5040929;28;20083;-61
2021/11/02 08:56:42;;;;;;;51.00;34.43;;;;;;;5.24;79.22;101693.69;5019746;28;20299;-64
2021/11/02 08:59:07;;;;;;;51.97;36.13;;;;;;;5.01;79.01;101686.47;5035012;28;20033;-65
2021/11/02 09:01:36;;;;;;;52.63;35.03;;;;;;;4.86;79.45;101687.50;5038405;28;20128;-64
2021/11/02 09:04:02;;;;;;;;;;;;;;;4.93;80.56;101699.34;5035843;28;20033;-63
2021/11/02 09:06:28;;;;;;;47.30;35.70;;;;;;;4.95;80.35;101695.66;5034799;28;19960;-65
2021/11/02 09:08:56;;;;;;;52.47;34.73;;;;;;;4.95;79.78;101681.63;5017138;28;20356;-64
2021/11/02 09:11:23;;;;;;;49.65;34.08;;;;;;;5.00;79.65;101687.44;5016968;28;20114;-62
2021/11/02 09:13:51;;;;;;;48.10;32.13;;;;;;;5.01;79.27;101696.19;5034980;28;20061;-64
2021/11/02 09:16:18;;;;;;;50.37;31.57;;;;;;;5.11;78.96;101695.44;5018600;28;20288;-63
2021/11/02 09:18:45;;;;;;;49.40;32.93;;;;;;;5.21;78.93;101696.53;5017391;28;20267;-63
2021/11/02 09:21:12;;;;;;;49.03;33.80;;;;;;;5.05;78.57;101666.00;5034748;28;20276;-63
2021/11/02 09:23:46;;;;;;;57.23;34.90;;;;;;;5.25;79.09;101687.44;5034551;28;20291;-61
2021/11/02 09:26:19;;;;;;;60.63;37.77;;;;;;;4.77;78.75;101604.53;5034610;28;20787;-67
2021/11/02 09:28:46;;;;;;;64.13;38.10;;;;;;;4.96;78.57;101647.19;5033164;28;20303;-65
2021/11/02 09:31:13;;;;;;;64.97;41.27;;;;;;;5.06;79.47;101694.91;5035407;28;20275;-63
2021/11/02 09:33:39;;;;;;;63.80;41.10;;;;;;;4.97;79.98;101695.56;5016620;28;20264;-63
2021/11/02 09:36:11;;;;;;;58.83;39.07;;;;;;;4.81;79.98;101674.63;5033079;28;20299;-62
2021/11/02 09:38:48;;;;;;;71.67;42.50;;;;;;;4.94;80.37;101693.97;5034493;28;20036;-62
2021/11/02 09:41:37;;;;;;;63.33;41.53;;;;;;;5.02;80.24;101693.44;4995157;28;20285;-62
2021/11/02 09:44:45;;;;;;;55.50;37.03;;;;;;;4.93;79.55;101686.16;4995114;28;20317;-62
2021/11/02 09:47:38;;;;;;;60.50;40.03;;;;;;;4.93;80.15;101687.00;4954322;29;20295;-64
2021/11/02 09:50:14;;;;;;;60.40;38.23;;;;;;;4.94;80.38;101685.22;4994788;28;20050;-65
2021/11/02 09:52:48;;;;;;;52.20;37.83;;;;;;;4.91;80.39;101688.03;4994916;28;20038;-65
2021/11/02 09:55:53;;;;;;;55.67;37.90;;;;;;;4.83;80.79;101687.72;5009988;28;20113;-63
2021/11/02 09:58:47;;;;;;;56.80;38.50;;;;;;;4.83;80.88;101687.72;4994807;28;20556;-66
2021/11/02 10:01:24;;;;;;;57.13;37.37;;;;;;;4.85;80.70;101680.53;4994618;28;20293;-66
2021/11/02 10:04:24;;;;;;;52.80;37.20;;;;;;;4.82;80.73;101671.03;4995040;28;20332;-65
2021/11/02 10:07:09;;;;;;;61.50;37.93;;;;;;;4.90;80.53;101681.06;4994781;28;20281;-63
2021/11/02 10:09:38;;;;;;;64.10;38.77;;;;;;;4.87;80.74;101673.34;4994579;28;20269;-64
2021/11/02 10:12:16;;;;;;;58.43;39.77;;;;;;;4.79;81.30;101671.22;4994769;28;20045;-62
2021/11/02 10:15:09;;;;;;;50.83;37.53;;;;;;;4.71;81.38;101662.16;4995481;28;20261;-63
2021/11/02 10:17:46;;;;;;;56.27;36.90;;;;;;;4.80;80.97;101683.47;4994717;28;20038;-62
2021/11/02 10:20:38;;;;;;;55.50;39.40;;;;;;;4.84;80.97;101692.03;4994966;28;20086;-61
2021/11/02 10:23:23;;;;;;;61.70;39.53;;;;;;;4.83;81.15;101692.97;4995558;28;20089;-65
2021/11/02 10:26:24;;;;;;;55.00;39.33;;;;;;;4.83;81.08;101687.72;4999452;28;20265;-61
2021/11/02 10:29:19;;;;;;;61.83;38.40;;;;;;;4.81;81.10;101689.59;4940421;29;20362;-62
2021/11/02 10:32:12;;;;;;;63.07;39.10;;;;;;;4.82;81.65;101693.94;4994979;28;20258;-63
2021/11/02 10:34:58;;;;;;;59.33;40.23;;;;;;;4.86;81.15;101682.22;4992853;28;20042;-63
2021/11/02 10:37:40;;;;;;;58.67;39.90;;;;;;;4.80;82.10;101672.06;4994259;28;20364;-63
2021/11/02 10:40:22;;;;;;;61.07;39.67;;;;;;;4.86;81.33;101683.06;5016831;28;20294;-63
2021/11/02 10:43:15;;;;;;;83.43;50.43;;;;;;;4.84;81.51;101687.59;5036161;28;20288;-61
2021/11/02 10:45:53;;;;;;;74.70;46.73;;;;;;;4.92;81.72;101687.94;5036349;28;20256;-65
2021/11/02 10:48:43;;;;;;;53.43;36.60;;;;;;;5.02;81.43;101682.03;5035167;28;20748;-65
2021/11/02 10:51:35;;;;;;;51.07;36.70;;;;;;;5.06;81.33;101684.38;5023349;28;20367;-65
2021/11/02 10:54:14;;;;;;;55.13;36.10;;;;;;;5.08;80.73;101679.81;5033238;28;20355;-64
2021/11/02 10:57:05;;;;;;;55.10;36.23;;;;;;;5.06;81.04;101667.69;5033190;28;20048;-63
2021/11/02 10:59:32;;;;;;;60.37;38.80;;;;;;;5.09;80.55;101662.19;5032507;28;20033;-63
2021/11/02 11:01:58;;;;;;;55.40;35.87;;;;;;;5.16;80.94;101674.84;5034068;28;20045;-62
2021/11/02 11:04:33;;;;;;;50.20;35.03;;;;;;;5.18;80.66;101678.22;5032888;28;20064;-61
2021/11/02 11:07:00;;;;;;;59.20;38.37;;;;;;;5.12;81.03;101664.59;5033114;28;20034;-63
2021/11/02 11:09:29;;;;;;;54.90;37.13;;;;;;;5.08;80.56;101663.97;5032938;28;20484;-63
2021/11/02 11:11:55;;;;;;;51.85;35.25;;;;;;;5.07;80.45;101657.00;5014331;28;20040;-63
2021/11/02 11:14:31;;;;;;;49.80;35.30;;;;;;;5.19;81.18;101681.72;5033434;28;20055;-62
2021/11/02 11:16:58;;;;;;;53.63;35.33;;;;;;;5.17;81.01;101663.34;5015615;28;20042;-66
2021/11/02 11:19:28;;;;;;;50.07;34.13;;;;;;;5.18;81.03;101675.59;5032622;28;20076;-63
2021/11/02 11:21:57;;;;;;;49.23;35.80;;;;;;;5.17;80.92;101675.69;5032507;28;20040;-61
2021/11/02 11:24:39;;;;;;;49.78;36.40;;;;;;;5.14;80.57;101665.34;5032558;28;20159;-63
2021/11/02 11:27:08;;;;;;;56.57;35.70;;;;;;;5.23;81.07;101670.88;5014982;28;20044;-62
2021/11/02 11:29:37;;;;;;;;;;;;;;;5.32;80.91;101673.81;5033571;28;20397;-63
2021/11/02 11:32:04;;;;;;;54.78;38.25;;;;;;;5.29;81.03;101665.16;5033530;28;19917;-62
2021/11/02 11:34:34;;;;;;;53.73;36.77;;;;;;;5.28;80.64;101662.63;5032230;28;20128;-67
2021/11/02 11:37:03;;;;;;;50.63;35.90;;;;;;;5.28;80.62;101668.75;5032243;28;20045;-63
2021/11/02 11:39:33;;;;;;;53.93;38.50;;;;;;;5.27;80.94;101669.69;5022086;28;20053;-63
2021/11/02 11:42:00;;;;;;;57.57;37.23;;;;;;;5.31;80.78;101669.47;5006235;28;20284;-65
2021/11/02 11:44:27;;;;;;;53.30;36.77;;;;;;;5.41;80.50;101665.22;5051551;28;20028;-64
2021/11/02 11:47:08;;;;;;;51.67;37.10;;;;;;;5.52;80.10;101654.78;5051290;28;20033;-65
2021/11/02 11:49:36;;;;;;;55.13;36.03;;;;;;;5.61;79.96;101656.75;5050532;28;20538;-63
2021/11/02 11:52:08;;;;;;;56.10;37.65;;;;;;;5.56;79.83;101621.91;5050748;28;20082;-66
2021/11/02 11:54:51;;;;;;;59.90;39.93;;;;;;;5.65;79.84;101647.66;5050825;28;20044;-65
2021/11/02 11:57:29;;;;;;;50.47;35.77;;;;;;;5.49;79.36;101624.13;5050645;28;20484;-65
2021/11/02 12:00:19;;;;;;;53.67;37.53;;;;;;;5.44;80.46;101635.94;5034352;28;20054;-62
2021/11/02 12:03:02;;;;;;;56.27;38.83;;;;;;;5.51;80.11;101650.44;5034166;28;20048;-63
2021/11/02 12:05:31;;;;;;;67.90;43.87;;;;;;;5.49;80.05;101653.19;5052001;28;20037;-66
2021/11/02 12:08:23;;;;;;;56.83;41.43;;;;;;;5.47;81.01;101649.78;5051787;28;20029;-64
2021/11/02 12:10:52;;;;;;;58.37;41.93;;;;;;;5.25;80.85;101631.97;5052195;28;20037;-62
2021/11/02 12:13:19;;;;;;;62.55;42.53;;;;;;;5.27;81.13;101640.63;5051923;28;20036;-63
2021/11/02 12:16:06;;;;;;;59.53;39.27;;;;;;;5.28;81.14;101657.34;5050516;28;20051;-63
2021/11/02 12:18:35;;;;;;;67.27;43.27;;;;;;;5.15;81.11;101645.91;5051678;28;20063;-62
2021/11/02 12:21:02;;;;;;;84.50;52.05;;;;;;;5.12;81.41;101636.41;5049462;28;20039;-65
2021/11/02 12:23:39;;;;;;;68.90;45.63;;;;;;;5.17;82.30;101638.72;5038861;28;20043;-62
2021/11/02 12:26:06;;;;;;;65.23;43.20;;;;;;;5.15;82.16;101641.47;5034650;28;20292;-64
2021/11/02 12:28:35;;;;;;;64.37;41.83;;;;;;;5.14;82.07;101638.94;5035810;28;20284;-67
2021/11/02 12:31:07;;;;;;;62.97;41.47;;;;;;;5.04;82.33;101630.81;5019622;28;20424;-63
2021/11/02 12:33:38;;;;;;;68.47;43.70;;;;;;;5.05;83.04;101640.44;5018114;28;20493;-63
2021/11/02 12:36:05;;;;;;;64.47;41.50;;;;;;;4.98;82.58;101641.81;5034504;28;20394;-62
2021/11/02 12:38:41;;;;;;;65.53;41.30;;;;;;;5.00;82.73;101642.53;5035549;28;20045;-65
2021/11/02 12:41:17;;;;;;;59.80;39.17;;;;;;;5.03;82.68;101642.34;5018029;28;20060;-63
2021/11/02 12:43:43;;;;;;;61.83;40.97;;;;;;;5.00;82.93;101642.53;5035451;28;20306;-61
2021/11/02 12:46:10;;;;;;;83.77;52.77;;;;;;;4.97;82.78;101627.75;5037157;28;20279;-65
2021/11/02 12:48:38;;;;;;;72.40;45.77;;;;;;;4.93;82.88;101620.16;5035521;28;20041;-62
2021/11/02 12:51:07;;;;;;;66.05;43.83;;;;;;;4.95;83.29;101642.03;5035563;28;20037;-69
2021/11/02 12:53:36;;;;;;;69.17;42.50;;;;;;;4.96;83.19;101635.78;5001213;28;20408;-65
2021/11/02 12:56:20;;;;;;;66.17;42.07;;;;;;;4.97;82.96;101626.91;5017117;28;20083;-64
2021/11/02 12:58:50;;;;;;;61.20;42.30;;;;;;;4.94;83.43;101627.97;5035889;28;20322;-63
2021/11/02 13:01:34;;;;;;;67.13;41.80;;;;;;;4.99;83.29;101630.28;5036659;28;20272;-62
2021/11/02 13:04:04;;;;;;;61.50;40.90;;;;;;;4.85;83.06;101617.19;5017451;28;20095;-64
2021/11/02 13:06:43;;;;;;;62.83;44.30;;;;;;;4.84;83.08;101615.50;5017203;28;20280;-63
2021/11/02 13:09:13;;;;;;;64.27;44.27;;;;;;;4.82;83.87;101627.94;5018515;28;20440;-64
2021/11/02 13:11:39;;;;;;;61.10;44.60;;;;;;;4.77;83.78;101635.34;5017663;28;20675;-63
2021/11/02 13:14:11;;;;;;;63.83;40.60;;;;;;;4.72;84.05;101618.97;5035720;28;20037;-63
2021/11/02 13:16:57;;;;;;;66.00;45.67;;;;;;;4.72;83.81;101627.75;5035720;28;20302;-63
2021/11/02 13:19:25;;;;;;;62.37;41.70;;;;;;;4.62;83.56;101606.38;5035118;28;20268;-62
2021/11/02 13:21:51;;;;;;;57.25;40.40;;;;;;;4.73;83.95;101623.31;5035180;28;20272;-66
2021/11/02 13:24:21;;;;;;;66.37;42.47;;;;;;;4.66;83.98;101633.44;5035208;28;20043;-64
2021/11/02 13:26:51;;;;;;;65.60;42.93;;;;;;;4.62;84.01;101622.22;5033845;28;20187;-64
2021/11/02 13:29:27;;;;;;;62.30;40.07;;;;;;;4.60;84.31;101616.19;5017915;28;20029;-61
2021/11/02 13:31:55;;;;;;;58.87;39.33;;;;;;;4.56;85.03;101622.63;5045495;28;20852;-63
2021/11/02 13:34:29;;;;;;;55.03;39.20;;;;;;;4.64;84.54;101628.28;5036960;28;20282;-62
2021/11/02 13:37:07;;;;;;;93.47;53.97;;;;;;;4.73;84.07;101631.22;5045157;28;20955;-66
2021/11/02 13:39:57;;;;;;;69.75;44.53;;;;;;;4.76;83.47;101623.09;5031310;28;20296;-66
2021/11/02 13:43:03;;;;;;;59.27;38.30;;;;;;;4.77;83.91;101625.63;5035921;28;20090;-63
2021/11/02 13:45:29;;;;;;;55.83;36.47;;;;;;;4.80;84.16;101619.28;5013898;28;20289;-64
2021/11/02 13:48:15;;;;;;;63.90;37.37;;;;;;;4.87;83.72;101629.31;5013902;28;20030;-64
2021/11/02 13:50:40;;;;;;;53.03;36.73;;;;;;;4.85;83.33;101622.47;5025932;28;20079;-61
2021/11/02 13:53:06;;;;;;;57.30;36.90;;;;;;;4.82;83.27;101617.41;5033583;28;20284;-66
2021/11/02 13:55:32;;;;;;;64.23;38.23;;;;;;;4.87;83.71;101620.56;5033661;28;20060;-62
2021/11/02 13:57:58;;;;;;;58.53;39.57;;;;;;;4.94;83.21;101632.41;5049501;28;20033;-65
2021/11/02 14:00:23;;;;;;;59.27;39.07;;;;;;;4.94;83.22;101635.06;5034812;28;20026;-67
2021/11/02 14:02:51;;;;;;;59.40;41.47;;;;;;;4.85;83.69;101628.59;5034920;28;20047;-65
2021/11/02 14:05:18;;;;;;;56.78;35.17;;;;;;;4.66;83.43;101617.59;5035632;28;20041;-62
2021/11/02 14:07:44;;;;;;;59.20;38.83;;;;;;;4.62;83.92;101616.94;5035209;28;20547;-64
2021/11/02 14:10:11;;;;;;;55.50;36.37;;;;;;;4.59;84.33;101616.31;5035668;28;20269;-65
2021/11/02 14:12:52;;;;;;;55.83;36.97;;;;;;;4.40;84.37;101603.53;5034854;28;20046;-62
2021/11/02 14:15:22;;;;;;;59.77;38.40;;;;;;;4.35;84.87;101605.63;5034774;28;20271;-65
2021/11/02 14:17:54;;;;;;;54.50;36.43;;;;;;;4.43;85.45;101605.97;5035266;28;20767;-63
2021/11/02 14:20:39;;;;;;;66.80;45.03;;;;;;;4.37;85.28;101610.81;5036765;28;20171;-64
2021/11/02 14:23:31;;;;;;;65.60;42.73;;;;;;;4.34;85.20;101611.84;5034481;28;20329;-61
2021/11/02 14:26:23;;;;;;;64.60;44.03;;;;;;;4.27;85.21;101610.53;5030474;28;20268;-62
2021/11/02 14:28:52;;;;;;;56.13;40.90;;;;;;;4.13;85.53;101586.91;5036094;28;20277;-62
2021/11/02 14:31:37;;;;;;;58.33;42.40;;;;;;;4.18;86.15;101601.47;5034646;28;20752;-64
2021/11/02 14:34:28;;;;;;;50.00;37.40;;;;;;;4.14;86.02;101599.97;5033591;28;20294;-65
2021/11/02 14:37:15;;;;;;;51.60;37.17;;;;;;;4.07;86.71;101606.59;5051516;28;20033;-64
2021/11/02 14:40:07;;;;;;;53.37;37.87;;;;;;;4.04;86.61;101597.06;5042301;28;20068;-62
2021/11/02 14:42:45;;;;;;;49.50;35.57;;;;;;;3.93;86.71;101581.13;5053747;28;20282;-70
2021/11/02 14:45:13;;;;;;;55.63;37.60;;;;;;;3.99;86.40;101591.25;5053880;28;20275;-67
2021/11/02 14:47:39;;;;;;;54.53;38.92;;;;;;;3.96;86.48;101590.63;5034479;28;20291;-63
2021/11/02 14:50:36;;;;;;;58.77;42.43;;;;;;;3.93;86.91;101601.38;5051949;28;20450;-62
2021/11/02 14:53:29;;;;;;;64.73;43.87;;;;;;;3.82;86.38;101590.69;5052053;28;20275;-63
2021/11/02 14:56:01;;;;;;;62.40;44.77;;;;;;;3.76;87.43;101581.38;5051762;28;20645;-64
2021/11/02 14:58:39;;;;;;;55.23;40.50;;;;;;;3.85;87.21;101601.88;5052989;28;20263;-65
2021/11/02 15:01:24;;;;;;;72.03;46.23;;;;;;;3.81;87.43;101594.25;5054022;28;20348;-66
2021/11/02 15:04:13;;;;;;;77.63;52.37;;;;;;;3.74;87.66;101589.38;5053439;28;20680;-62
2021/11/02 15:06:41;;;;;;;69.97;49.42;;;;;;;3.70;86.92;101590.50;5053232;28;20267;-64
2021/11/02 15:09:13;;;;;;;57.17;39.65;;;;;;;3.63;87.56;101576.03;5052500;28;20041;-63
2021/11/02 15:11:42;;;;;;;54.33;37.17;;;;;;;3.65;87.80;101586.47;5052991;28;20037;-62
2021/11/02 15:14:12;;;;;;;54.00;36.23;;;;;;;3.65;86.72;101586.47;5056192;28;20710;-62
2021/11/02 15:17:13;;;;;;;46.60;34.83;;;;;;;3.62;87.25;101591.94;5053787;28;20632;-64
2021/11/02 15:19:41;;;;;;;45.73;33.50;;;;;;;3.55;87.72;101583.59;4991386;28;20331;-66
2021/11/02 15:22:16;;;;;;;46.47;33.97;;;;;;;3.65;87.73;101589.97;5040507;28;20358;-62
2021/11/02 15:24:44;;;;;;;50.07;34.67;;;;;;;3.65;86.91;101581.22;5052973;28;20271;-69
2021/11/02 15:27:14;;;;;;;44.60;32.85;;;;;;;3.58;87.55;101577.28;5052646;28;20769;-66
2021/11/02 15:29:45;;;;;;;46.07;32.50;;;;;;;3.57;87.36;101575.59;5035257;28;20175;-64
2021/11/02 15:32:14;;;;;;;46.10;32.87;;;;;;;3.57;87.24;101567.69;5052435;28;20367;-61
2021/11/02 15:34:46;;;;;;;;;;;;;;;3.63;87.55;101577.84;5053018;28;20291;-63
2021/11/02 15:37:15;;;;;;;45.73;32.43;;;;;;;3.57;88.15;101572.97;5052358;28;20015;-62
2021/11/02 15:39:43;;;;;;;48.05;31.05;;;;;;;3.50;87.74;101555.88;5052235;28;20498;-63
2021/11/02 15:42:31;;;;;;;43.92;31.13;;;;;;;3.54;87.62;101565.25;5034389;28;20563;-68
2021/11/02 15:45:04;;;;;;;45.42;33.30;;;;;;;3.55;87.51;101575.69;5053427;28;20063;-67
2021/11/02 15:47:34;;;;;;;45.03;33.10;;;;;;;3.42;87.29;101554.53;5052629;28;20119;-63
2021/11/02 15:50:01;;;;;;;47.53;34.53;;;;;;;3.43;87.92;101555.38;5052600;28;20289;-67
2021/11/02 15:52:29;;;;;;;47.90;33.60;;;;;;;3.52;87.67;101565.34;5052376;28;20283;-64
2021/11/02 15:54:58;;;;;;;46.10;35.43;;;;;;;3.48;87.49;101569.13;5050981;28;20616;-63
2021/11/02 15:57:25;;;;;;;48.23;34.67;;;;;;;3.51;87.96;101568.94;5034246;28;20635;-65
2021/11/02 16:00:05;;;;;;;48.30;35.87;;;;;;;3.51;87.67;101560.19;5054613;28;20354;-66
2021/11/02 16:02:38;;;;;;;49.50;35.03;;;;;;;3.40;88.08;101543.25;5052085;28;20650;-66
2021/11/02 16:05:09;;;;;;;50.77;34.90;;;;;;;3.48;88.12;101569.13;5052551;28;20279;-62
2021/11/02 16:07:35;;;;;;;46.93;33.43;;;;;;;3.46;88.05;101556.97;5051910;28;20790;-63
2021/11/02 16:10:01;;;;;;;51.43;35.53;;;;;;;3.41;87.76;101558.13;5052170;28;20271;-64
2021/11/02 16:12:31;;;;;;;49.63;36.63;;;;;;;3.49;88.12;101575.25;5051636;28;20267;-61
2021/11/02 16:15:16;;;;;;;51.17;35.57;;;;;;;3.50;87.97;101574.31;5053338;28;20040;-63
2021/11/02 16:17:45;;;;;;;51.57;36.47;;;;;;;3.48;87.32;101563.88;5053239;28;20280;-62
2021/11/02 16:20:30;;;;;;;50.20;35.10;;;;;;;3.56;87.55;101566.84;5051748;28;20271;-64
2021/11/02 16:23:14;;;;;;;49.77;34.30;;;;;;;3.20;87.77;101506.84;5034245;28;20271;-63
2021/11/02 16:25:55;;;;;;;55.23;36.67;;;;;;;3.65;87.35;101571.53;5051792;28;20252;-64
2021/11/02 16:28:24;;;;;;;54.37;36.17;;;;;;;3.45;86.93;101532.44;5051827;28;20271;-67
2021/11/02 16:30:59;;;;;;;51.50;35.97;;;;;;;3.65;87.45;101571.53;5053832;28;20325;-61
2021/11/02 16:33:44;;;;;;;54.30;35.67;;;;;;;3.38;87.42;101531.16;5051985;28;20303;-64
2021/11/02 16:36:14;;;;;;;52.63;36.40;;;;;;;3.63;87.64;101573.41;5051850;28;20658;-64
2021/11/02 16:38:40;;;;;;;46.58;34.60;;;;;;;3.61;86.88;101575.31;5035808;28;20579;-65
2021/11/02 16:41:09;;;;;;;50.03;36.23;;;;;;;3.59;87.58;101579.81;5052166;28;20052;-67
2021/11/02 16:43:57;;;;;;;55.40;35.97;;;;;;;3.54;87.91;101581.06;5052144;28;20056;-65
2021/11/02 16:46:27;;;;;;;53.63;36.10;;;;;;;3.58;87.45;101579.91;5052191;28;20267;-63